sensor_id;sensor_type;location;lat;lon;timestamp;pressure;altitude;pressure_sealevel;temperature;humidity
41264;BME280;26998;48.714;9.414;2023-03-14T00:01:31;97289.94;;;8.39;100.00
41264;BME280;26998;48.714;9.414;2023-03-14T00:03:58;97308.56;;;8.39;100.00
41264;BME280;26998;48.714;9.414;2023-03-14T00:06:26;97311.63;;;8.36;100.00
41264;BME280;26998;48.714;9.414;2023-03-14T00:08:54;97318.22;;;8.33;100.00
41264;BME280;26998;48.714;9.414;2023-03-14T00:11:23;97323.28;;;8.34;100.00
41264;BME280;26998;48.714;9.414;2023-03-14T00:13:51;97282.34;;;8.36;100.00
41264;BME280;26998;48.714;9.414;2023-03-14T00:16:19;97233.22;;;8.31;100.00
41264;BME280;26998;48.714;9.414;2023-03-14T00:18:48;97232.34;;;8.38;100.00
41264;BME280;26998;48.714;9.414;2023-03-14T00:21:15;97245.25;;;8.41;100.00
41264;BME280;26998;48.714;9.414;2023-03-14T00:23:42;97221.88;;;8.43;100.00
41264;BME280;26998;48.714;9.414;2023-03-14T00:26:12;97201.84;;;8.40;100.00
41264;BME280;26998;48.714;9.414;2023-03-14T00:28:40;97217.59;;;8.42;100.00
41264;BME280;26998;48.714;9.414;2023-03-14T00:31:08;97203.69;;;8.40;100.00
41264;BME280;26998;48.714;9.414;2023-03-14T00:33:35;97194.66;;;8.41;100.00
41264;BME280;26998;48.714;9.414;2023-03-14T00:36:05;97200.81;;;8.41;100.00
41264;BME280;26998;48.714;9.414;2023-03-14T00:38:33;97191.44;;;8.39;100.00
41264;BME280;26998;48.714;9.414;2023-03-14T00:41:03;97200.81;;;8.41;100.00
41264;BME280;26998;48.714;9.414;2023-03-14T00:43:30;97201.19;;;8.45;100.00
41264;BME280;26998;48.714;9.414;2023-03-14T00:45:56;97206.50;;;8.45;100.00
41264;BME280;26998;48.714;9.414;2023-03-14T00:48:23;97207.91;;;8.47;100.00
41264;BME280;26998;48.714;9.414;2023-03-14T00:50:50;97210.13;;;8.50;100.00
41264;BME280;26998;48.714;9.414;2023-03-14T00:53:17;97202.94;;;8.51;100.00
41264;BME280;26998;48.714;9.414;2023-03-14T00:55:50;97206.41;;;8.51;100.00
41264;BME280;26998;48.714;9.414;2023-03-14T00:58:17;97209.97;;;8.45;100.00
41264;BME280;26998;48.714;9.414;2023-03-14T01:00:45;97201.84;;;8.40;100.00
41264;BME280;26998;48.714;9.414;2023-03-14T01:03:13;97205.31;;;8.41;100.00
41264;BME280;26998;48.714;9.414;2023-03-14T01:05:40;97212.41;;;8.47;100.00
41264;BME280;26998;48.714;9.414;2023-03-14T01:08:07;97214.59;;;8.50;100.00
41264;BME280;26998;48.714;9.414;2023-03-14T01:10:37;97217.88;;;8.52;100.00
41264;BME280;26998;48.714;9.414;2023-03-14T01:13:04;97222.59;;;8.50;100.00
41264;BME280;26998;48.714;9.414;2023-03-14T01:15:32;97224.44;;;8.49;100.00
41264;BME280;26998;48.714;9.414;2023-03-14T01:17:59;97232.69;;;8.48;100.00
41264;BME280;26998;48.714;9.414;2023-03-14T01:20:28;97218.56;;;8.47;100.00
41264;BME280;26998;48.714;9.414;2023-03-14T01:22:56;97218.16;;;8.44;100.00
41264;BME280;26998;48.714;9.414;2023-03-14T01:25:23;97222.03;;;8.29;100.00
41264;BME280;26998;48.714;9.414;2023-03-14T01:27:49;97215.56;;;8.37;100.00
41264;BME280;26998;48.714;9.414;2023-03-14T01:30:19;97198.38;;;8.40;100.00
41264;BME280;26998;48.714;9.414;2023-03-14T01:32:45;97182.53;;;8.45;100.00
41264;BME280;26998;48.714;9.414;2023-03-14T01:35:12;97186.09;;;8.39;100.00
41264;BME280;26998;48.714;9.414;2023-03-14T01:37:39;97178.69;;;8.41;100.00
41264;BME280;26998;48.714;9.414;2023-03-14T01:40:05;97184.00;;;8.41;100.00
41264;BME280;26998;48.714;9.414;2023-03-14T01:42:32;97184.25;;;8.39;100.00
41264;BME280;26998;48.714;9.414;2023-03-14T01:45:00;97187.72;;;8.40;100.00
41264;BME280;26998;48.714;9.414;2023-03-14T01:47:27;97175.81;;;8.42;100.00
41264;BME280;26998;48.714;9.414;2023-03-14T01:49:57;97170.31;;;8.37;100.00
41264;BME280;26998;48.714;9.414;2023-03-14T01:52:46;97163.47;;;8.29;100.00
41264;BME280;26998;48.714;9.414;2023-03-14T01:55:26;97154.66;;;8.29;100.00
41264;BME280;26998;48.714;9.414;2023-03-14T01:57:56;97169.34;;;8.31;100.00
41264;BME280;26998;48.714;9.414;2023-03-14T02:00:25;97143.34;;;8.33;100.00
41264;BME280;26998;48.714;9.414;2023-03-14T02:02:56;97148.44;;;8.35;100.00
41264;BME280;26998;48.714;9.414;2023-03-14T02:05:30;97142.47;;;8.21;100.00
41264;BME280;26998;48.714;9.414;2023-03-14T02:07:59;97145.00;;;8.16;100.00
41264;BME280;26998;48.714;9.414;2023-03-14T02:10:28;97133.00;;;8.25;100.00
41264;BME280;26998;48.714;9.414;2023-03-14T02:12:59;97138.66;;;8.17;100.00
41264;BME280;26998;48.714;9.414;2023-03-14T02:15:29;97142.47;;;8.21;100.00
41264;BME280;26998;48.714;9.414;2023-03-14T02:17:57;97151.50;;;8.20;100.00
41264;BME280;26998;48.714;9.414;2023-03-14T02:23:38;97135.97;;;8.17;100.00
41264;BME280;26998;48.714;9.414;2023-03-14T02:26:15;97132.09;;;8.01;100.00
41264;BME280;26998;48.714;9.414;2023-03-14T02:28:46;97121.72;;;8.12;100.00
41264;BME280;26998;48.714;9.414;2023-03-14T02:31:13;97105.53;;;8.13;100.00
41264;BME280;26998;48.714;9.414;2023-03-14T02:33:39;97104.50;;;8.14;100.00
41264;BME280;26998;48.714;9.414;2023-03-14T02:36:11;97094.97;;;8.06;100.00
41264;BME280;26998;48.714;9.414;2023-03-14T02:41:13;97091.13;;;8.02;100.00
41264;BME280;26998;48.714;9.414;2023-03-14T02:43:40;97096.09;;;7.99;100.00
41264;BME280;26998;48.714;9.414;2023-03-14T02:46:10;97101.94;;;8.07;100.00
41264;BME280;26998;48.714;9.414;2023-03-14T02:51:12;97088.28;;;8.04;100.00
41264;BME280;26998;48.714;9.414;2023-03-14T02:53:40;97090.34;;;8.02;100.00
41264;BME280;26998;48.714;9.414;2023-03-14T02:56:07;97095.59;;;7.90;100.00
41264;BME280;26998;48.714;9.414;2023-03-14T02:58:34;97091.38;;;8.01;100.00
41264;BME280;26998;48.714;9.414;2023-03-14T03:01:02;97073.78;;;8.00;100.00
41264;BME280;26998;48.714;9.414;2023-03-14T03:03:29;97064.19;;;7.99;100.00
41264;BME280;26998;48.714;9.414;2023-03-14T03:05:57;97063.13;;;8.00;100.00
41264;BME280;26998;48.714;9.414;2023-03-14T03:08:26;97068.00;;;8.03;100.00
41264;BME280;26998;48.714;9.414;2023-03-14T03:10:54;97062.03;;;8.07;100.00
41264;BME280;26998;48.714;9.414;2023-03-14T03:13:20;97072.75;;;8.01;100.00
41264;BME280;26998;48.714;9.414;2023-03-14T03:15:47;97071.19;;;7.93;100.00
41264;BME280;26998;48.714;9.414;2023-03-14T03:18:13;97065.44;;;7.96;100.00
41264;BME280;26998;48.714;9.414;2023-03-14T03:20:41;97056.03;;;7.94;100.00
41264;BME280;26998;48.714;9.414;2023-03-14T03:23:11;97041.50;;;7.96;100.00
41264;BME280;26998;48.714;9.414;2023-03-14T03:25:38;97041.06;;;7.81;100.00
41264;BME280;26998;48.714;9.414;2023-03-14T03:28:04;97043.22;;;7.72;100.00
41264;BME280;26998;48.714;9.414;2023-03-14T03:30:31;97037.47;;;7.75;100.00
41264;BME280;26998;48.714;9.414;2023-03-14T03:32:57;97039.31;;;7.75;100.00
41264;BME280;26998;48.714;9.414;2023-03-14T03:35:24;97032.53;;;7.79;100.00
41264;BME280;26998;48.714;9.414;2023-03-14T03:37:51;97015.31;;;7.63;100.00
41264;BME280;26998;48.714;9.414;2023-03-14T03:40:17;97019.19;;;7.67;100.00
41264;BME280;26998;48.714;9.414;2023-03-14T03:42:44;97021.38;;;7.70;100.00
41264;BME280;26998;48.714;9.414;2023-03-14T03:45:10;97023.91;;;7.65;100.00
41264;BME280;26998;48.714;9.414;2023-03-14T03:47:37;97006.91;;;7.66;100.00
41264;BME280;26998;48.714;9.414;2023-03-14T03:50:03;97015.03;;;7.71;100.00
41264;BME280;26998;48.714;9.414;2023-03-14T03:52:30;97009.56;;;7.66;100.00
41264;BME280;26998;48.714;9.414;2023-03-14T03:54:56;97004.25;;;7.66;100.00
41264;BME280;26998;48.714;9.414;2023-03-14T03:57:23;97006.78;;;7.61;100.00
41264;BME280;26998;48.714;9.414;2023-03-14T03:59:50;97004.41;;;7.53;100.00
41264;BME280;26998;48.714;9.414;2023-03-14T04:02:16;97007.69;;;7.55;100.00
41264;BME280;26998;48.714;9.414;2023-03-14T04:04:43;97009.06;;;7.57;100.00
41264;BME280;26998;48.714;9.414;2023-03-14T04:07:09;97012.31;;;7.59;100.00
41264;BME280;26998;48.714;9.414;2023-03-14T04:09:37;97002.47;;;7.60;100.00
41264;BME280;26998;48.714;9.414;2023-03-14T04:12:05;97002.34;;;7.55;100.00
41264;BME280;26998;48.714;9.414;2023-03-14T04:14:32;97006.03;;;7.54;100.00
41264;BME280;26998;48.714;9.414;2023-03-14T04:17:00;97008.88;;;7.40;100.00
41264;BME280;26998;48.714;9.414;2023-03-14T04:19:27;97014.84;;;7.54;100.00
41264;BME280;26998;48.714;9.414;2023-03-14T04:21:53;97004.06;;;7.49;100.00
41264;BME280;26998;48.714;9.414;2023-03-14T04:24:19;96999.19;;;7.46;100.00
41264;BME280;26998;48.714;9.414;2023-03-14T04:26:46;97009.47;;;7.43;100.00
41264;BME280;26998;48.714;9.414;2023-03-14T04:29:12;97009.31;;;7.37;100.00
41264;BME280;26998;48.714;9.414;2023-03-14T04:31:39;97015.38;;;7.45;100.00
41264;BME280;26998;48.714;9.414;2023-03-14T04:34:05;97011.00;;;7.50;100.00
41264;BME280;26998;48.714;9.414;2023-03-14T04:36:33;97002.66;;;7.47;100.00
41264;BME280;26998;48.714;9.414;2023-03-14T04:38:59;97003.63;;;7.34;100.00
41264;BME280;26998;48.714;9.414;2023-03-14T04:41:26;96999.47;;;7.38;100.00
41264;BME280;26998;48.714;9.414;2023-03-14T04:43:52;96986.00;;;7.39;100.00
41264;BME280;26998;48.714;9.414;2023-03-14T04:46:19;96992.91;;;7.40;100.00
41264;BME280;26998;48.714;9.414;2023-03-14T04:48:45;96986.06;;;7.33;100.00
41264;BME280;26998;48.714;9.414;2023-03-14T04:51:12;96977.84;;;7.34;100.00
41264;BME280;26998;48.714;9.414;2023-03-14T04:53:39;96974.25;;;7.29;100.00
41264;BME280;26998;48.714;9.414;2023-03-14T04:56:05;96971.81;;;7.27;100.00
41264;BME280;26998;48.714;9.414;2023-03-14T04:58:32;96968.56;;;7.25;100.00
41264;BME280;26998;48.714;9.414;2023-03-14T05:01:03;96964.06;;;7.26;100.00
41264;BME280;26998;48.714;9.414;2023-03-14T05:03:30;96954.91;;;7.22;100.00
41264;BME280;26998;48.714;9.414;2023-03-14T05:05:56;96959.06;;;7.17;100.00
41264;BME280;26998;48.714;9.414;2023-03-14T05:08:23;96948.66;;;7.16;100.00
41264;BME280;26998;48.714;9.414;2023-03-14T05:10:57;96950.66;;;7.21;100.00
41264;BME280;26998;48.714;9.414;2023-03-14T05:13:23;96947.28;;;7.13;100.00
41264;BME280;26998;48.714;9.414;2023-03-14T05:15:50;96945.19;;;7.15;100.00
41264;BME280;26998;48.714;9.414;2023-03-14T05:18:17;96942.41;;;7.10;100.00
41264;BME280;26998;48.714;9.414;2023-03-14T05:20:44;96937.91;;;7.11;100.00
41264;BME280;26998;48.714;9.414;2023-03-14T05:23:10;96931.38;;;7.07;100.00
41264;BME280;26998;48.714;9.414;2023-03-14T05:25:37;96928.53;;;7.08;100.00
41264;BME280;26998;48.714;9.414;2023-03-14T05:28:04;96920.19;;;7.05;100.00
41264;BME280;26998;48.714;9.414;2023-03-14T05:30:30;96932.44;;;7.06;100.00
41264;BME280;26998;48.714;9.414;2023-03-14T05:32:56;96924.63;;;7.11;100.00
41264;BME280;26998;48.714;9.414;2023-03-14T05:35:24;96928.28;;;7.10;100.00
41264;BME280;26998;48.714;9.414;2023-03-14T05:37:51;96932.50;;;6.99;100.00
41264;BME280;26998;48.714;9.414;2023-03-14T05:40:17;96927.72;;;7.08;100.00
41264;BME280;26998;48.714;9.414;2023-03-14T05:42:44;96927.91;;;7.06;100.00
41264;BME280;26998;48.714;9.414;2023-03-14T05:45:10;96928.72;;;7.07;100.00
41264;BME280;26998;48.714;9.414;2023-03-14T05:47:37;96916.22;;;6.96;100.00
41264;BME280;26998;48.714;9.414;2023-03-14T05:50:04;96928.44;;;6.97;100.00
41264;BME280;26998;48.714;9.414;2023-03-14T05:52:33;96919.59;;;7.03;100.00
41264;BME280;26998;48.714;9.414;2023-03-14T05:55:00;96913.47;;;7.02;100.00
41264;BME280;26998;48.714;9.414;2023-03-14T05:57:27;96912.59;;;7.08;100.00
41264;BME280;26998;48.714;9.414;2023-03-14T05:59:53;96911.34;;;7.11;100.00
41264;BME280;26998;48.714;9.414;2023-03-14T06:02:20;96914.63;;;7.25;100.00
41264;BME280;26998;48.714;9.414;2023-03-14T06:04:46;96898.81;;;7.30;100.00
41264;BME280;26998;48.714;9.414;2023-03-14T06:07:14;96900.88;;;7.28;100.00
41264;BME280;26998;48.714;9.414;2023-03-14T06:09:42;96899.38;;;7.20;100.00
41264;BME280;26998;48.714;9.414;2023-03-14T06:12:08;96898.47;;;7.26;100.00
41264;BME280;26998;48.714;9.414;2023-03-14T06:14:35;96904.22;;;7.23;100.00
41264;BME280;26998;48.714;9.414;2023-03-14T06:17:01;96907.53;;;7.18;100.00
41264;BME280;26998;48.714;9.414;2023-03-14T06:19:28;96909.53;;;7.23;100.00
41264;BME280;26998;48.714;9.414;2023-03-14T06:21:59;96912.66;;;7.20;100.00
41264;BME280;26998;48.714;9.414;2023-03-14T06:24:28;96908.78;;;7.16;100.00
41264;BME280;26998;48.714;9.414;2023-03-14T06:26:54;96912.03;;;7.36;100.00
41264;BME280;26998;48.714;9.414;2023-03-14T06:29:21;96921.75;;;7.43;100.00
41264;BME280;26998;48.714;9.414;2023-03-14T06:31:47;96938.88;;;7.47;100.00
41264;BME280;26998;48.714;9.414;2023-03-14T06:34:14;96971.34;;;7.49;100.00
41264;BME280;26998;48.714;9.414;2023-03-14T06:36:41;96982.09;;;7.54;100.00
41264;BME280;26998;48.714;9.414;2023-03-14T06:39:07;97010.53;;;7.53;100.00
41264;BME280;26998;48.714;9.414;2023-03-14T06:41:34;97048.34;;;7.55;100.00
41264;BME280;26998;48.714;9.414;2023-03-14T06:44:00;97077.38;;;7.57;100.00
41264;BME280;26998;48.714;9.414;2023-03-14T06:46:27;97124.28;;;7.51;100.00
41264;BME280;26998;48.714;9.414;2023-03-14T06:48:54;97161.31;;;7.46;100.00
41264;BME280;26998;48.714;9.414;2023-03-14T06:51:20;97198.16;;;7.43;100.00
41264;BME280;26998;48.714;9.414;2023-03-14T06:53:47;97249.66;;;7.48;100.00
41264;BME280;26998;48.714;9.414;2023-03-14T06:56:13;97260.22;;;7.55;100.00
41264;BME280;26998;48.714;9.414;2023-03-14T06:58:40;97290.47;;;7.54;100.00
41264;BME280;26998;48.714;9.414;2023-03-14T07:01:20;97306.22;;;7.55;100.00
41264;BME280;26998;48.714;9.414;2023-03-14T07:03:48;97315.19;;;7.61;100.00
41264;BME280;26998;48.714;9.414;2023-03-14T07:06:16;97332.28;;;7.72;100.00
41264;BME280;26998;48.714;9.414;2023-03-14T07:08:42;97367.13;;;7.89;100.00
41264;BME280;26998;48.714;9.414;2023-03-14T07:11:09;97645.34;;;8.03;100.00
41264;BME280;26998;48.714;9.414;2023-03-14T07:13:35;97614.56;;;8.20;100.00
41264;BME280;26998;48.714;9.414;2023-03-14T07:16:02;97584.63;;;8.38;100.00
41264;BME280;26998;48.714;9.414;2023-03-14T07:18:29;97539.69;;;8.48;100.00
41264;BME280;26998;48.714;9.414;2023-03-14T07:20:55;97508.84;;;8.59;100.00
41264;BME280;26998;48.714;9.414;2023-03-14T07:23:22;97468.38;;;8.75;100.00
41264;BME280;26998;48.714;9.414;2023-03-14T07:25:48;97457.13;;;8.92;100.00
41264;BME280;26998;48.714;9.414;2023-03-14T07:28:18;97426.59;;;9.06;100.00
41264;BME280;26998;48.714;9.414;2023-03-14T07:30:46;97414.16;;;9.18;100.00
41264;BME280;26998;48.714;9.414;2023-03-14T07:33:13;97436.69;;;9.22;100.00
41264;BME280;26998;48.714;9.414;2023-03-14T07:35:39;97387.66;;;9.23;100.00
41264;BME280;26998;48.714;9.414;2023-03-14T07:38:06;97328.91;;;9.30;100.00
41264;BME280;26998;48.714;9.414;2023-03-14T07:40:33;97369.72;;;9.31;100.00
41264;BME280;26998;48.714;9.414;2023-03-14T07:42:59;97371.91;;;9.64;100.00
41264;BME280;26998;48.714;9.414;2023-03-14T07:45:28;97336.34;;;10.05;100.00
41264;BME280;26998;48.714;9.414;2023-03-14T07:47:54;97239.53;;;10.22;100.00
41264;BME280;26998;48.714;9.414;2023-03-14T07:50:21;97215.50;;;10.22;100.00
41264;BME280;26998;48.714;9.414;2023-03-14T07:52:49;97207.84;;;10.37;100.00
41264;BME280;26998;48.714;9.414;2023-03-14T07:55:15;97199.38;;;10.69;100.00
41264;BME280;26998;48.714;9.414;2023-03-14T07:57:42;97131.47;;;10.98;100.00
41264;BME280;26998;48.714;9.414;2023-03-14T08:00:09;97090.16;;;10.89;100.00
41264;BME280;26998;48.714;9.414;2023-03-14T08:02:36;97139.13;;;10.61;100.00
41264;BME280;26998;48.714;9.414;2023-03-14T08:05:03;97126.72;;;10.55;100.00
41264;BME280;26998;48.714;9.414;2023-03-14T08:07:30;97142.72;;;10.38;100.00
41264;BME280;26998;48.714;9.414;2023-03-14T08:09:56;97194.38;;;10.44;100.00
41264;BME280;26998;48.714;9.414;2023-03-14T08:12:23;97159.22;;;10.80;100.00
41264;BME280;26998;48.714;9.414;2023-03-14T08:14:49;97106.91;;;11.18;100.00
41264;BME280;26998;48.714;9.414;2023-03-14T08:17:16;97097.75;;;11.31;100.00
41264;BME280;26998;48.714;9.414;2023-03-14T08:19:46;97105.06;;;11.19;100.00
41264;BME280;26998;48.714;9.414;2023-03-14T08:22:15;97069.09;;;11.09;100.00
41264;BME280;26998;48.714;9.414;2023-03-14T08:24:48;97069.44;;;11.35;100.00
41264;BME280;26998;48.714;9.414;2023-03-14T08:27:15;97061.81;;;11.44;100.00
41264;BME280;26998;48.714;9.414;2023-03-14T08:29:42;97036.06;;;11.60;100.00
41264;BME280;26998;48.714;9.414;2023-03-14T08:32:08;97046.59;;;11.88;100.00
41264;BME280;26998;48.714;9.414;2023-03-14T08:34:35;97018.63;;;12.01;100.00
41264;BME280;26998;48.714;9.414;2023-03-14T08:37:02;97007.63;;;11.97;100.00
41264;BME280;26998;48.714;9.414;2023-03-14T08:39:35;96967.22;;;11.77;100.00
41264;BME280;26998;48.714;9.414;2023-03-14T08:42:02;96954.28;;;11.91;100.00
41264;BME280;26998;48.714;9.414;2023-03-14T08:44:29;96946.84;;;12.25;100.00
41264;BME280;26998;48.714;9.414;2023-03-14T08:46:55;96993.09;;;12.47;100.00
41264;BME280;26998;48.714;9.414;2023-03-14T08:49:22;96936.53;;;12.12;100.00
41264;BME280;26998;48.714;9.414;2023-03-14T08:51:48;96946.06;;;12.30;100.00
41264;BME280;26998;48.714;9.414;2023-03-14T08:54:15;96932.75;;;12.08;100.00
41264;BME280;26998;48.714;9.414;2023-03-14T08:56:42;96930.38;;;12.48;100.00
41264;BME280;26998;48.714;9.414;2023-03-14T08:59:08;96914.59;;;12.15;100.00
41264;BME280;26998;48.714;9.414;2023-03-14T09:01:35;96926.97;;;12.21;100.00
41264;BME280;26998;48.714;9.414;2023-03-14T09:04:02;96926.03;;;12.37;100.00
41264;BME280;26998;48.714;9.414;2023-03-14T09:06:29;96918.13;;;12.58;100.00
41264;BME280;26998;48.714;9.414;2023-03-14T09:08:55;96918.63;;;12.50;100.00
41264;BME280;26998;48.714;9.414;2023-03-14T09:11:22;96927.56;;;12.65;100.00
41264;BME280;26998;48.714;9.414;2023-03-14T09:13:48;96901.94;;;12.42;100.00
41264;BME280;26998;48.714;9.414;2023-03-14T09:16:15;96929.34;;;12.50;100.00
41264;BME280;26998;48.714;9.414;2023-03-14T09:18:42;96914.50;;;12.74;100.00
41264;BME280;26998;48.714;9.414;2023-03-14T09:21:08;96937.53;;;12.75;100.00
41264;BME280;26998;48.714;9.414;2023-03-14T09:23:35;96939.03;;;12.56;100.00
41264;BME280;26998;48.714;9.414;2023-03-14T09:26:01;96957.81;;;12.61;100.00
41264;BME280;26998;48.714;9.414;2023-03-14T09:28:28;96937.25;;;12.34;100.00
41264;BME280;26998;48.714;9.414;2023-03-14T09:30:54;96950.72;;;12.44;100.00
41264;BME280;26998;48.714;9.414;2023-03-14T09:33:21;96971.78;;;12.31;100.00
41264;BME280;26998;48.714;9.414;2023-03-14T09:35:48;96968.38;;;12.40;100.00
41264;BME280;26998;48.714;9.414;2023-03-14T09:38:15;96978.03;;;12.41;100.00
41264;BME280;26998;48.714;9.414;2023-03-14T09:40:42;96981.78;;;12.40;100.00
41264;BME280;26998;48.714;9.414;2023-03-14T09:43:11;96982.28;;;12.37;100.00
41264;BME280;26998;48.714;9.414;2023-03-14T09:45:41;96996.69;;;12.31;100.00
41264;BME280;26998;48.714;9.414;2023-03-14T09:48:15;96982.09;;;12.49;100.00
41264;BME280;26998;48.714;9.414;2023-03-14T09:50:46;96992.22;;;12.37;100.00
41264;BME280;26998;48.714;9.414;2023-03-14T09:53:24;96998.94;;;12.77;100.00
41264;BME280;26998;48.714;9.414;2023-03-14T09:55:53;96961.41;;;13.24;100.00
41264;BME280;26998;48.714;9.414;2023-03-14T09:58:21;96991.41;;;13.16;100.00
41264;BME280;26998;48.714;9.414;2023-03-14T10:00:50;96981.16;;;13.03;100.00
41264;BME280;26998;48.714;9.414;2023-03-14T10:03:27;96994.47;;;12.92;100.00
41264;BME280;26998;48.714;9.414;2023-03-14T10:05:55;96998.44;;;12.47;100.00
41264;BME280;26998;48.714;9.414;2023-03-14T10:08:22;97021.19;;;12.45;100.00
41264;BME280;26998;48.714;9.414;2023-03-14T10:10:51;97070.91;;;12.31;100.00
41264;BME280;26998;48.714;9.414;2023-03-14T10:13:25;97056.44;;;12.32;100.00
41264;BME280;26998;48.714;9.414;2023-03-14T10:16:00;97068.66;;;12.22;100.00
41264;BME280;26998;48.714;9.414;2023-03-14T10:18:32;97052.97;;;12.36;100.00
41264;BME280;26998;48.714;9.414;2023-03-14T10:23:44;97055.69;;;12.09;100.00
41264;BME280;26998;48.714;9.414;2023-03-14T10:26:23;97067.28;;;12.20;100.00
41264;BME280;26998;48.714;9.414;2023-03-14T10:29:02;97031.44;;;11.99;100.00
41264;BME280;26998;48.714;9.414;2023-03-14T10:31:46;97054.94;;;12.46;100.00
41264;BME280;26998;48.714;9.414;2023-03-14T10:34:17;96998.94;;;12.77;100.00
41264;BME280;26998;48.714;9.414;2023-03-14T10:36:45;96981.72;;;13.10;100.00
41264;BME280;26998;48.714;9.414;2023-03-14T10:42:06;96952.81;;;13.90;100.00
41264;BME280;26998;48.714;9.414;2023-03-14T10:44:38;96929.94;;;13.82;100.00
41264;BME280;26998;48.714;9.414;2023-03-14T10:47:18;96938.81;;;13.88;100.00
41264;BME280;26998;48.714;9.414;2023-03-14T10:49:45;96937.97;;;13.62;100.00
41264;BME280;26998;48.714;9.414;2023-03-14T10:54:41;96938.56;;;13.84;100.00
41264;BME280;26998;48.714;9.414;2023-03-14T10:57:07;96948.03;;;13.29;100.00
41264;BME280;26998;48.714;9.414;2023-03-14T10:59:39;96938.81;;;13.10;100.00
41264;BME280;26998;48.714;9.414;2023-03-14T11:02:32;96951.97;;;13.16;100.00
41264;BME280;26998;48.714;9.414;2023-03-14T11:07:47;96971.31;;;12.39;100.00
41264;BME280;26998;48.714;9.414;2023-03-14T11:10:20;96987.53;;;12.27;100.00
41264;BME280;26998;48.714;9.414;2023-03-14T11:18:28;96989.53;;;12.10;100.00
41264;BME280;26998;48.714;9.414;2023-03-14T11:21:18;97015.97;;;12.28;100.00
41264;BME280;26998;48.714;9.414;2023-03-14T11:24:17;96995.63;;;12.32;100.00
41264;BME280;26998;48.714;9.414;2023-03-14T11:27:15;96997.59;;;12.15;100.00
41264;BME280;26998;48.714;9.414;2023-03-14T11:29:55;96993.38;;;12.19;100.00
41264;BME280;26998;48.714;9.414;2023-03-14T11:35:25;97086.38;;;12.01;100.00
41264;BME280;26998;48.714;9.414;2023-03-14T11:38:11;97125.16;;;11.99;100.00
41264;BME280;26998;48.714;9.414;2023-03-14T11:40:39;97119.38;;;11.85;100.00
41264;BME280;26998;48.714;9.414;2023-03-14T11:43:12;97103.41;;;11.73;100.00
41264;BME280;26998;48.714;9.414;2023-03-14T11:45:42;97134.91;;;11.49;100.00
41264;BME280;26998;48.714;9.414;2023-03-14T11:48:24;97168.66;;;11.50;100.00
41264;BME280;26998;48.714;9.414;2023-03-14T11:50:57;97164.19;;;11.56;100.00
41264;BME280;26998;48.714;9.414;2023-03-14T11:59:07;97222.97;;;11.51;100.00
41264;BME280;26998;48.714;9.414;2023-03-14T12:07:39;97272.47;;;11.20;100.00
41264;BME280;26998;48.714;9.414;2023-03-14T12:10:08;97277.81;;;11.20;100.00
41264;BME280;26998;48.714;9.414;2023-03-14T12:12:36;97263.16;;;11.22;100.00
41264;BME280;26998;48.714;9.414;2023-03-14T12:15:04;97240.75;;;11.12;100.00
41264;BME280;26998;48.714;9.414;2023-03-14T12:17:40;97255.66;;;11.07;100.00
41264;BME280;26998;48.714;9.414;2023-03-14T12:20:18;97270.56;;;11.03;100.00
41264;BME280;26998;48.714;9.414;2023-03-14T12:25:23;97293.28;;;10.89;100.00
41264;BME280;26998;48.714;9.414;2023-03-14T12:30:29;97404.75;;;10.77;100.00
41264;BME280;26998;48.714;9.414;2023-03-14T12:41:22;97360.22;;;10.82;100.00
41264;BME280;26998;48.714;9.414;2023-03-14T12:43:51;97381.16;;;10.85;100.00
41264;BME280;26998;48.714;9.414;2023-03-14T12:49:16;97286.38;;;10.64;100.00
41264;BME280;26998;48.714;9.414;2023-03-14T12:51:43;97256.28;;;10.69;100.00
41264;BME280;26998;48.714;9.414;2023-03-14T12:54:21;97189.53;;;10.57;100.00
41264;BME280;26998;48.714;9.414;2023-03-14T12:59:46;97175.88;;;10.71;100.00
41264;BME280;26998;48.714;9.414;2023-03-14T13:02:20;97184.38;;;10.68;100.00
41264;BME280;26998;48.714;9.414;2023-03-14T13:04:51;97180.63;;;11.14;100.00
41264;BME280;26998;48.714;9.414;2023-03-14T13:07:36;97174.72;;;11.46;100.00
41264;BME280;26998;48.714;9.414;2023-03-14T13:10:26;97177.41;;;11.46;100.00
41264;BME280;26998;48.714;9.414;2023-03-14T13:12:56;97191.41;;;11.36;100.00
41264;BME280;26998;48.714;9.414;2023-03-14T13:15:29;97205.13;;;11.23;90.79
41264;BME280;26998;48.714;9.414;2023-03-14T13:21:14;97230.91;;;11.29;87.75
41264;BME280;26998;48.714;9.414;2023-03-14T13:24:06;97229.53;;;11.43;84.01
41264;BME280;26998;48.714;9.414;2023-03-14T13:26:37;97239.09;;;11.39;82.08
41264;BME280;26998;48.714;9.414;2023-03-14T13:29:22;97244.88;;;11.02;82.45
41264;BME280;26998;48.714;9.414;2023-03-14T13:31:54;97259.88;;;10.75;85.81
41264;BME280;26998;48.714;9.414;2023-03-14T13:34:25;97284.09;;;10.56;85.31
41264;BME280;26998;48.714;9.414;2023-03-14T13:36:52;97295.72;;;10.15;82.11
41264;BME280;26998;48.714;9.414;2023-03-14T13:39:21;97308.25;;;10.14;82.60
41264;BME280;26998;48.714;9.414;2023-03-14T13:41:49;97315.56;;;9.84;75.04
41264;BME280;26998;48.714;9.414;2023-03-14T13:44:30;97320.41;;;9.63;74.39
41264;BME280;26998;48.714;9.414;2023-03-14T13:47:05;97342.13;;;9.67;76.96
41264;BME280;26998;48.714;9.414;2023-03-14T13:49:33;97344.63;;;9.62;75.27
41264;BME280;26998;48.714;9.414;2023-03-14T13:51:59;97356.41;;;9.73;75.46
41264;BME280;26998;48.714;9.414;2023-03-14T13:54:27;97362.44;;;9.80;75.58
41264;BME280;26998;48.714;9.414;2023-03-14T13:57:04;97377.28;;;9.76;70.97
41264;BME280;26998;48.714;9.414;2023-03-14T13:59:33;97372.59;;;9.59;74.61
41264;BME280;26998;48.714;9.414;2023-03-14T14:02:15;97384.31;;;9.58;78.29
41264;BME280;26998;48.714;9.414;2023-03-14T14:04:44;97401.16;;;9.70;77.00
41264;BME280;26998;48.714;9.414;2023-03-14T14:07:15;97395.88;;;9.94;76.08
41264;BME280;26998;48.714;9.414;2023-03-14T14:09:46;97416.44;;;10.17;70.84